Detall de PIREP

Printer-friendly versionPDF version

[2013/03/22 19:57:00]
Flight IATA:CT1004
Pilot Number:044
Company ICAO:CAT
Aircraft Type:AT72/F
PAX:40
Departing Airport: LEBL
Destination Airport: LEVT
Alternate Airport:LEBB
Online: VATSIM
Route:GRAUS G23 PPN
Flight Level:F190
No Slew and time accel
No pause
Crash detect
Detect pilot in Cockpit between each 30 and 45 minutes
19:57 Zero fuel Weight: 39665 Lbs, Fuel Weight: 4415 Lbs
19:57 VATSIM:LEBL 221930Z 20005KT 9999 SCT016 14/12 Q1006 NOSIG
19:57 VATSIM:LEVT 221930Z 21004KT 170V290 9999 FEW060 09/05 Q1005
19:57 VOICE CATALONIAN / EASTER CHARTER
20:05 Parking Brakes off
20:22 Take-off
20:22 Take off Weight: 43931 Lbs
20:22 Wind: 191º @ 009 Knots Heading: 243º
20:22 POS N41º 17´ 11´´ E002º 05´ 13´´
20:22 Gear Up: 137 Knots
20:22 Flaps:1 at 137 Knots
20:22 Flaps:0 at 134 Knots
20:35 TOC
20:35 Fuel Weight: 3803 Lb
20:37 Wind:210º@009 Knots Heading: 278º Ground Speed: 266 Knots Altitude 18786 ft
20:52 Wind:294º@005 Knots Heading: 297º Ground Speed: 279 Knots Altitude 18799 ft
20:59 TOD
20:59 Fuel Weight: 3098 Lb
21:07 Wind:164º@005 Knots Heading: 292º Ground Speed: 226 Knots Altitude 9222 ft
21:22 Wind:000º@007 Knots Heading: 265º Ground Speed: 192 Knots Altitude 6489 ft
21:35 Gear Down: 157 Knots
21:36 Flaps:1 at 139 Knots
21:36 Flaps:2 at 133 Knots
21:37 Wind:000º@005 Knots Heading: 034º Ground Speed: 132 Knots Altitude 4232 ft
21:42 TouchDown:Rate -167 ft/min Speed: 97 Knots
21:42 VATSIM:LEVT 222130Z VRB01KT 9999 FEW065 06/05 Q1006
21:42 Land
21:42 Wind:004º@005 Knots
21:42 Heading: 040º
21:42 Flight Duration: 01:20
21:42 Landing Weight: 42233 Lbs
21:42 POS N42º 52´ 50´´ W002º 43´ 36´´
21:43 Parking brakes on
21:43 Block to Block Duration: 01:38
21:43 Final Fuel: 2563 Lbls
21:43 Spent Fuel: 1851 Lbls
21:43 Flight Length: 297 NM
21:43 TOD Land Length: 138 NM

Exportar CSV

Powered by Drupal - Modified by Danger4k